Time;durP1;ratioP1;P1;durP2;ratioP2;P2;SDS_P1;SDS_P2;PMS_P1;PMS_P2;Temp;Humidity;BMP_temperature;BMP_pressure;BME280_temperature;BME280_humidity;BME280_pressure;Samples;Min_cycle;Max_cycle;Signal;HPM_P1;HPM_P2
2022/01/20 00:01:37;;;;;;;44.85;10.65;;;;;;;3.88;94.92;101784.84;4968966;28;20070;-80
2022/01/20 00:04:14;;;;;;;41.60;10.93;;;;;;;3.86;94.70;101797.03;4967798;29;20078;-79
2022/01/20 00:07:18;;;;;;;32.47;10.15;;;;;;;3.80;95.10;101795.63;4965818;29;20079;-79
2022/01/20 00:20:39;;;;;;;40.92;10.40;;;;;;;3.73;94.86;101783.13;4966649;28;20047;-79
2022/01/20 00:26:22;;;;;;;31.42;8.93;;;;;;;3.42;95.31;101789.09;4970396;28;20061;-79
2022/01/20 00:28:51;;;;;;;32.28;8.27;;;;;;;3.37;95.27;101788.50;4969444;28;20069;-78
2022/01/20 00:31:39;;;;;;;36.47;9.18;;;;;;;3.40;95.46;101789.19;4963625;28;20098;-78
2022/01/20 00:34:16;;;;;;;37.58;8.82;;;;;;;3.36;94.99;101795.44;4960572;29;20051;-78
2022/01/20 00:39:30;;;;;;;40.20;9.90;;;;;;;3.34;95.03;101795.50;4962189;28;20062;-79
2022/01/20 00:41:57;;;;;;;34.33;9.23;;;;;;;3.26;95.22;101779.59;4962329;28;20082;-79
2022/01/20 00:44:24;;;;;;;41.03;8.75;;;;;;;3.30;95.03;101798.38;4960173;28;20069;-79
2022/01/20 00:46:51;;;;;;;30.50;7.43;;;;;;;3.29;94.69;101809.63;4960193;28;20051;-79
2022/01/20 00:49:18;;;;;;;30.92;7.68;;;;;;;3.33;95.12;101808.53;4960546;28;20544;-78
2022/01/20 00:51:46;;;;;;;31.30;7.55;;;;;;;3.28;95.13;101807.97;4964861;28;20090;-78
2022/01/20 00:54:12;;;;;;;35.97;7.78;;;;;;;3.27;94.87;101801.13;4962566;28;20058;-79
2022/01/20 00:56:39;;;;;;;27.60;7.32;;;;;;;3.22;94.67;101803.09;4959825;28;20051;-79
2022/01/20 00:59:06;;;;;;;35.83;7.88;;;;;;;3.16;94.87;101800.84;4959902;28;20090;-80
2022/01/20 01:01:33;;;;;;;36.33;7.90;;;;;;;3.23;95.48;101826.31;4960325;29;20070;-80
2022/01/20 01:03:59;;;;;;;42.58;9.57;;;;;;;3.16;95.26;101814.59;4960773;28;20078;-80
2022/01/20 01:06:38;;;;;;;35.08;8.70;;;;;;;3.12;96.05;101823.44;4960698;29;20067;-79
2022/01/20 01:09:06;;;;;;;34.47;7.88;;;;;;;3.04;95.79;101816.97;4961205;28;20514;-80
2022/01/20 01:11:33;;;;;;;42.78;8.65;;;;;;;3.00;95.86;101814.53;4960591;28;20055;-80
2022/01/20 01:14:02;;;;;;;35.00;8.02;;;;;;;3.02;96.06;101822.22;4961742;28;20078;-79
2022/01/20 01:16:41;;;;;;;50.38;9.98;;;;;;;2.95;95.91;101823.44;4961765;28;20055;-79
2022/01/20 01:22:04;;;;;;;35.53;8.60;;;;;;;2.89;96.31;101818.59;4964452;29;20062;-80
2022/01/20 01:24:32;;;;;;;41.80;9.98;;;;;;;2.85;96.68;101823.06;4966416;29;20051;-80
2022/01/20 01:26:58;;;;;;;44.58;9.25;;;;;;;2.77;96.72;101816.63;4965081;28;20091;-78
2022/01/20 01:31:55;;;;;;;38.47;9.18;;;;;;;2.81;96.71;101819.00;4986233;28;20051;-81
2022/01/20 01:34:22;;;;;;;39.92;9.73;;;;;;;2.78;96.80;101818.31;4994203;28;20093;-80
2022/01/20 01:37:03;;;;;;;40.42;10.80;;;;;;;2.82;96.29;101815.50;4999225;28;20046;-80
2022/01/20 01:39:30;;;;;;;51.17;10.13;;;;;;;2.79;96.88;101820.81;4982503;28;20119;-81
2022/01/20 01:42:00;;;;;;;40.33;10.55;;;;;;;2.73;96.75;101813.38;4980472;28;20129;-79
2022/01/20 01:44:29;;;;;;;41.30;9.85;;;;;;;2.75;97.29;101814.13;4983773;28;20081;-81
2022/01/20 01:46:58;;;;;;;42.63;10.88;;;;;;;2.84;97.33;101813.63;4982099;28;20454;-83
2022/01/20 01:49:25;;;;;;;44.85;10.15;;;;;;;2.88;96.90;101814.31;4979722;28;20465;-82
2022/01/20 01:51:51;;;;;;;33.25;10.18;;;;;;;2.91;96.97;101816.75;4980206;28;20046;-84
2022/01/20 01:54:18;;;;;;;33.00;9.05;;;;;;;2.99;97.05;101823.22;4979361;28;20161;-83
2022/01/20 01:56:48;;;;;;;38.95;10.27;;;;;;;3.05;96.15;101826.41;4984879;28;20074;-82
2022/01/20 01:59:19;;;;;;;41.05;11.00;;;;;;;3.13;96.12;101824.25;4979331;28;20053;-82
2022/01/20 02:01:46;;;;;;;39.33;9.25;;;;;;;3.23;95.34;101830.63;4979930;28;20079;-82
2022/01/20 02:04:17;;;;;;;38.95;8.90;;;;;;;3.33;95.45;101826.63;4979563;28;20078;-81
2022/01/20 02:07:05;;;;;;;36.13;9.60;;;;;;;3.33;95.13;101827.47;4979856;28;20070;-82
2022/01/20 02:17:48;;;;;;;43.58;10.10;;;;;;;3.30;95.81;101824.22;4981910;28;20404;-82
2022/01/20 02:18:35;;;;;;;37.60;8.73;;;;;;;3.50;94.11;101815.41;4984400;28;20152;-80
2022/01/20 02:21:02;;;;;;;30.70;8.45;;;;;;;3.48;94.30;101805.13;4984382;28;20355;-81
2022/01/20 02:23:29;;;;;;;38.13;9.10;;;;;;;3.49;94.00;101822.34;4984141;28;20482;-82
2022/01/20 02:25:55;;;;;;;33.63;8.80;;;;;;;3.43;95.06;101824.41;4989004;28;20082;-83
2022/01/20 02:28:22;;;;;;;36.85;8.52;;;;;;;3.39;94.25;101821.13;4993799;28;20480;-80
2022/01/20 02:30:49;;;;;;;26.60;7.88;;;;;;;3.34;94.25;101812.78;4988992;28;20047;-83
2022/01/20 02:33:18;;;;;;;30.15;7.95;;;;;;;3.30;94.24;101812.13;4991164;28;20074;-81
2022/01/20 02:35:46;;;;;;;32.92;8.40;;;;;;;3.27;94.61;101826.97;4992803;28;20102;-81
2022/01/20 02:38:19;;;;;;;32.65;8.77;;;;;;;3.26;94.57;101830.47;4990591;28;20496;-82
2022/01/20 02:46:30;;;;;;;28.90;7.85;;;;;;;3.21;94.42;101827.28;4922898;29;20054;-80
2022/01/20 02:48:57;;;;;;;33.58;8.35;;;;;;;3.22;94.21;101831.56;4955474;28;20050;-83
2022/01/20 02:51:23;;;;;;;29.40;8.95;;;;;;;3.23;94.44;101839.25;4981560;28;20454;-84
2022/01/20 02:53:51;;;;;;;29.27;7.65;;;;;;;3.21;94.43;101827.28;4982050;28;20150;-81
2022/01/20 02:56:19;;;;;;;33.85;7.70;;;;;;;3.15;94.78;101825.03;4981630;28;20109;-82
2022/01/20 02:58:45;;;;;;;26.25;6.38;;;;;;;3.16;94.77;101822.34;4981969;28;20416;-81
2022/01/20 03:01:12;;;;;;;30.08;7.43;;;;;;;3.11;94.95;101826.94;4980870;28;20472;-81
2022/01/20 03:03:39;;;;;;;31.90;7.32;;;;;;;3.12;94.35;101822.59;4982331;28;20070;-81
2022/01/20 03:06:06;;;;;;;22.23;6.55;;;;;;;3.09;94.47;101833.09;4984114;28;20055;-82
2022/01/20 03:08:34;;;;;;;24.05;6.18;;;;;;;3.05;94.32;101822.06;4983323;28;20106;-81
2022/01/20 03:11:02;;;;;;;25.13;6.72;;;;;;;3.10;94.34;101814.06;4982181;28;20077;-80
2022/01/20 03:13:28;;;;;;;33.55;6.38;;;;;;;3.02;93.55;101805.88;4979473;28;20138;-80
2022/01/20 03:15:55;;;;;;;23.83;6.25;;;;;;;2.95;93.93;101797.59;4978357;28;20130;-79
2022/01/20 03:18:22;;;;;;;29.20;6.70;;;;;;;2.98;93.95;101807.78;4979002;28;20448;-80
2022/01/20 03:20:48;;;;;;;22.92;6.70;;;;;;;3.07;93.48;101814.22;4980002;28;20202;-79
2022/01/20 03:23:15;;;;;;;23.83;6.22;;;;;;;3.05;94.11;101813.47;4980786;28;20082;-82
2022/01/20 03:25:42;;;;;;;21.85;7.30;;;;;;;3.09;93.30;101810.66;4981473;28;20050;-81
2022/01/20 03:28:10;;;;;;;24.48;5.60;;;;;;;3.10;93.54;101808.91;4976408;28;20127;-82
2022/01/20 03:30:36;;;;;;;27.60;6.53;;;;;;;3.10;93.38;101819.25;4980041;28;20145;-83
2022/01/20 03:33:03;;;;;;;28.17;5.68;;;;;;;3.05;93.28;101811.72;4979849;28;20526;-81
2022/01/20 03:35:31;;;;;;;21.92;6.00;;;;;;;3.10;93.36;101807.16;4981149;28;20078;-81
2022/01/20 03:37:58;;;;;;;23.23;5.18;;;;;;;3.16;93.39;101809.44;4982058;28;20126;-81
2022/01/20 03:40:25;;;;;;;24.40;6.40;;;;;;;3.18;93.06;101801.59;4980250;28;20517;-81
2022/01/20 03:42:52;;;;;;;24.38;5.32;;;;;;;3.27;92.83;101798.53;4979760;28;20086;-80
2022/01/20 03:45:27;;;;;;;18.90;5.32;;;;;;;3.29;92.57;101802.69;4981732;28;20133;-80
2022/01/20 03:48:06;;;;;;;22.90;5.38;;;;;;;3.27;92.96;101801.94;4985564;28;20043;-81
2022/01/20 03:53:20;;;;;;;25.02;5.95;;;;;;;3.43;92.67;101801.13;4980817;28;20070;-83
2022/01/20 03:55:47;;;;;;;20.45;5.32;;;;;;;3.41;92.84;101796.03;4980420;28;20592;-83
2022/01/20 03:58:14;;;;;;;22.13;5.78;;;;;;;3.44;92.51;101787.25;4970888;28;20063;-82
2022/01/20 04:00:44;;;;;;;20.58;5.35;;;;;;;3.43;91.96;101786.44;4960967;29;20172;-83
2022/01/20 04:03:11;;;;;;;26.75;5.68;;;;;;;3.45;91.68;101788.94;4960363;29;20043;-82
2022/01/20 04:05:50;;;;;;;20.35;5.00;;;;;;;3.36;92.08;101784.25;4959677;29;20073;-81
2022/01/20 04:08:17;;;;;;;18.55;4.80;;;;;;;3.28;92.99;101777.75;4969529;28;20043;-81
2022/01/20 04:10:44;;;;;;;17.45;4.75;;;;;;;3.21;92.83;101780.75;4978740;28;20059;-81
2022/01/20 04:13:11;;;;;;;19.83;4.63;;;;;;;3.22;93.26;101782.41;4977517;28;20074;-82
2022/01/20 04:15:39;;;;;;;19.42;4.97;;;;;;;3.16;93.78;101777.56;4980010;28;20063;-82
2022/01/20 04:18:11;;;;;;;28.48;6.00;;;;;;;3.20;93.58;101795.41;4980140;28;20053;-81
2022/01/20 04:20:39;;;;;;;31.38;6.50;;;;;;;3.15;93.55;101789.66;4986488;28;20107;-80
2022/01/20 04:23:06;;;;;;;19.90;6.53;;;;;;;3.11;93.32;101801.06;4989712;28;20058;-80
2022/01/20 04:25:32;;;;;;;20.58;5.72;;;;;;;3.16;93.70;101796.50;4991711;28;20106;-81
2022/01/20 04:27:59;;;;;;;24.08;5.72;;;;;;;3.15;93.82;101794.00;4989814;28;20130;-80
2022/01/20 04:30:25;;;;;;;24.55;5.90;;;;;;;3.16;93.43;101798.25;4988055;28;20059;-81
2022/01/20 04:32:52;;;;;;;20.95;5.63;;;;;;;3.10;93.34;101785.63;4979246;28;20484;-82
2022/01/20 04:35:20;;;;;;;23.75;6.18;;;;;;;3.08;94.18;101797.81;4978998;28;20126;-82
2022/01/20 04:37:48;;;;;;;18.02;5.05;;;;;;;3.11;93.12;101782.13;4976686;28;20109;-81
2022/01/20 04:40:15;;;;;;;27.27;6.07;;;;;;;3.10;93.08;101773.53;4972013;28;20079;-80
2022/01/20 04:42:44;;;;;;;17.25;5.30;;;;;;;3.08;94.06;101790.88;4971647;29;20043;-81
2022/01/20 04:45:15;;;;;;;21.77;5.53;;;;;;;3.00;93.97;101788.69;4972015;29;20075;-80
2022/01/20 04:47:47;;;;;;;23.33;5.07;;;;;;;3.04;94.52;101780.78;4976740;28;20082;-81
2022/01/20 04:58:28;;;;;;;22.20;6.93;;;;;;;3.14;93.72;101787.16;4968131;28;20133;-79
2022/01/20 05:00:54;;;;;;;18.30;4.93;;;;;;;3.20;94.06;101797.16;4958527;29;20570;-80
2022/01/20 05:03:21;;;;;;;20.52;5.13;;;;;;;3.11;93.67;101810.56;4958015;28;20138;-81
2022/01/20 05:05:47;;;;;;;19.48;5.93;;;;;;;3.08;94.25;101802.97;4959319;28;20067;-82
2022/01/20 05:08:18;;;;;;;18.98;5.30;;;;;;;3.08;94.40;101805.56;4959365;28;20058;-81
2022/01/20 05:10:44;;;;;;;18.52;4.82;;;;;;;3.06;94.05;101804.81;4959739;28;20083;-82
2022/01/20 05:13:21;;;;;;;15.48;5.50;;;;;;;3.05;94.28;101800.53;4958165;29;20051;-81
2022/01/20 05:15:48;;;;;;;21.65;5.47;;;;;;;3.00;94.36;101814.53;4958793;28;20059;-80
2022/01/20 05:18:15;;;;;;;27.10;5.30;;;;;;;2.99;94.33;101812.88;4959456;29;20087;-80
2022/01/20 05:20:41;;;;;;;16.55;4.90;;;;;;;3.00;94.64;101804.19;4960333;28;20123;-81
2022/01/20 05:23:08;;;;;;;25.30;5.85;;;;;;;3.07;94.87;101794.38;4960563;28;20091;-80
2022/01/20 05:25:36;;;;;;;21.85;5.78;;;;;;;3.15;94.25;101801.75;4961844;29;20082;-82
2022/01/20 05:28:03;;;;;;;15.90;5.68;;;;;;;3.16;93.71;101793.06;4959779;28;20472;-79
2022/01/20 05:30:29;;;;;;;19.13;5.78;;;;;;;3.20;93.55;101810.09;4959463;28;20108;-80
2022/01/20 05:32:56;;;;;;;16.45;6.28;;;;;;;3.15;93.60;101817.25;4959554;28;20047;-81
2022/01/20 05:35:22;;;;;;;18.95;5.65;;;;;;;3.16;93.55;101803.41;4960501;28;20512;-81
2022/01/20 05:37:49;;;;;;;19.20;5.95;;;;;;;3.08;93.96;101805.56;4959032;28;20070;-81
2022/01/20 05:40:16;;;;;;;18.98;5.97;;;;;;;3.00;93.63;101814.53;4963741;28;20073;-80
2022/01/20 05:42:44;;;;;;;18.02;5.85;;;;;;;3.02;93.32;101816.22;4957695;28;20086;-81
2022/01/20 05:45:12;;;;;;;22.85;5.72;;;;;;;3.11;92.75;101815.75;4959428;28;20062;-81
2022/01/20 05:47:44;;;;;;;17.40;5.72;;;;;;;3.10;92.78;101821.84;4958777;28;20055;-81
2022/01/20 05:50:11;;;;;;;21.10;5.45;;;;;;;3.10;92.82;101814.06;4960379;28;20107;-80
2022/01/20 05:52:41;;;;;;;16.50;4.72;;;;;;;3.15;91.99;101817.25;4962450;29;20078;-81
2022/01/20 05:55:10;;;;;;;14.10;4.20;;;;;;;3.13;91.83;101832.03;4967309;28;20055;-80
2022/01/20 05:57:37;;;;;;;14.05;4.20;;;;;;;3.11;91.31;101832.09;4962841;29;20070;-80
2022/01/20 06:00:06;;;;;;;17.33;4.45;;;;;;;3.12;91.52;101838.13;4965373;28;20536;-82
2022/01/20 06:02:36;;;;;;;16.35;5.20;;;;;;;3.20;91.38;101841.97;4968890;28;20093;-82
2022/01/20 06:05:04;;;;;;;10.07;3.65;;;;;;;3.28;91.31;101852.78;4973060;28;20055;-84
2022/01/20 06:07:31;;;;;;;12.43;3.70;;;;;;;3.31;91.73;101856.91;4965766;28;20059;-83
2022/01/20 06:09:58;;;;;;;19.02;5.47;;;;;;;3.34;91.80;101864.53;4960610;29;20085;-82
2022/01/20 06:12:24;;;;;;;9.30;3.72;;;;;;;3.28;91.46;101859.69;4960579;28;20051;-82
2022/01/20 06:14:51;;;;;;;7.35;3.53;;;;;;;3.30;91.53;101857.88;4960421;28;20135;-83
2022/01/20 06:17:26;;;;;;;8.75;3.95;;;;;;;3.26;92.42;101862.38;4960612;28;20118;-83
2022/01/20 06:19:53;;;;;;;13.45;4.20;;;;;;;3.27;92.36;101858.84;4960210;29;20078;-84
2022/01/20 06:22:20;;;;;;;13.75;4.47;;;;;;;3.19;92.39;101867.91;4961679;29;20055;-84
2022/01/20 06:24:47;;;;;;;10.38;4.15;;;;;;;3.17;93.46;101869.75;4961059;28;20500;-85
2022/01/20 06:27:14;;;;;;;11.80;5.30;;;;;;;3.17;93.52;101872.34;4959758;28;20504;-83
2022/01/20 06:29:40;;;;;;;8.85;4.68;;;;;;;3.12;94.30;101890.66;4958848;28;20563;-82
2022/01/20 06:32:08;;;;;;;16.38;5.55;;;;;;;3.13;94.11;101907.03;4958444;29;20138;-81
2022/01/20 06:34:36;;;;;;;20.67;5.28;;;;;;;3.12;94.98;101910.53;4959105;28;20440;-82
2022/01/20 06:37:04;;;;;;;17.45;5.18;;;;;;;2.68;93.71;101926.47;4964640;29;20131;-78
2022/01/20 06:39:31;;;;;;;10.38;3.60;;;;;;;2.25;92.55;101918.19;4959834;28;20055;-80
2022/01/20 06:41:58;;;;;;;12.73;4.22;;;;;;;2.19;92.07;101921.03;4959684;28;20466;-80
2022/01/20 06:44:25;;;;;;;12.75;4.47;;;;;;;2.19;94.05;101918.47;4959085;28;20133;-81
2022/01/20 06:46:52;;;;;;;12.82;4.82;;;;;;;2.36;94.88;101930.59;4960515;28;20468;-81
2022/01/20 06:49:19;;;;;;;13.32;5.25;;;;;;;2.42;96.01;101925.13;4958852;28;20079;-81
2022/01/20 06:51:47;;;;;;;17.42;6.78;;;;;;;2.51;96.45;101939.34;4958691;28;20114;-80
2022/01/20 06:54:15;;;;;;;12.63;5.25;;;;;;;2.56;95.90;101940.81;4962875;28;20047;-81
2022/01/20 06:56:42;;;;;;;16.85;5.53;;;;;;;2.56;96.48;101938.22;4965314;28;20551;-81
2022/01/20 06:59:09;;;;;;;16.67;6.68;;;;;;;2.59;96.01;101937.25;4965208;28;20058;-81
2022/01/20 07:01:36;;;;;;;17.33;7.63;;;;;;;2.49;96.26;101942.00;4967069;29;20051;-82
2022/01/20 07:04:03;;;;;;;19.35;7.05;;;;;;;2.54;96.47;101946.97;4967709;28;20401;-82
2022/01/20 07:06:30;;;;;;;18.50;6.50;;;;;;;2.58;96.31;101940.75;4967095;28;20134;-81
2022/01/20 07:08:58;;;;;;;21.92;6.22;;;;;;;2.55;95.69;101951.22;4966113;29;20122;-82
2022/01/20 07:11:24;;;;;;;19.85;6.30;;;;;;;2.65;95.84;101962.81;4965572;28;20116;-83
2022/01/20 07:13:51;;;;;;;13.80;6.13;;;;;;;2.62;95.80;101968.94;4964489;28;20182;-82
2022/01/20 07:16:18;;;;;;;13.57;5.25;;;;;;;2.58;95.94;101977.75;4965548;29;20106;-83
2022/01/20 07:18:44;;;;;;;18.40;6.00;;;;;;;2.61;95.88;101982.78;4964001;29;20571;-81
2022/01/20 07:21:11;;;;;;;17.05;6.40;;;;;;;2.63;95.78;101980.13;4963562;28;20073;-83
2022/01/20 07:23:37;;;;;;;14.07;6.10;;;;;;;2.64;95.39;101987.81;4965221;28;20058;-82
2022/01/20 07:26:05;;;;;;;19.70;5.38;;;;;;;2.69;94.13;102002.25;4966173;29;20090;-80
2022/01/20 07:28:32;;;;;;;18.13;5.35;;;;;;;2.73;93.60;101993.47;4963965;28;20582;-80
2022/01/20 08:49:48;;;;;;;22.48;5.60;;;;;;;3.06;91.54;102102.19;4871666;29;20060;-79
2022/01/20 08:52:28;;;;;;;17.40;4.75;;;;;;;2.96;91.55;102089.69;4928006;29;20116;-80
2022/01/20 09:05:52;;;;;;;18.40;5.07;;;;;;;2.80;92.80;102124.94;4912244;29;20083;-82
2022/01/20 09:08:39;;;;;;;22.88;5.72;;;;;;;3.02;92.09;102123.94;4961709;28;20085;-80
2022/01/20 09:11:31;;;;;;;16.75;5.22;;;;;;;3.10;91.08;102120.09;4993020;28;20054;-81
2022/01/20 09:16:54;;;;;;;18.15;5.90;;;;;;;3.29;87.61;102110.56;4978130;28;20057;-79
2022/01/20 09:22:11;;;;;;;15.13;3.60;;;;;;;3.21;86.23;102135.94;4980729;28;20058;-80
2022/01/20 09:24:47;;;;;;;14.52;3.95;;;;;;;3.04;86.22;102127.28;4983244;28;20137;-80
2022/01/20 09:27:17;;;;;;;9.15;3.25;;;;;;;3.00;85.09;102127.44;4994644;28;20114;-80
2022/01/20 09:29:48;;;;;;;13.02;3.42;;;;;;;2.85;85.57;102104.84;5002132;28;20493;-80
2022/01/20 09:32:36;;;;;;;7.75;2.70;;;;;;;3.03;83.89;102134.22;4994631;28;20046;-78
2022/01/20 09:35:06;;;;;;;11.27;2.78;;;;;;;2.94;82.01;102119.94;4989690;28;20235;-80
2022/01/20 09:37:38;;;;;;;10.45;2.42;;;;;;;2.99;81.00;102125.75;4990446;28;20415;-79
2022/01/20 09:40:10;;;;;;;10.55;2.42;;;;;;;3.02;80.03;102121.34;4983215;28;20046;-80
2022/01/20 09:46:18;;;;;;;9.10;2.00;;;;;;;3.13;75.66;102140.63;4996768;28;20129;-79
2022/01/20 09:49:00;;;;;;;8.85;2.85;;;;;;;3.12;76.63;102145.88;4977071;28;20564;-80
2022/01/20 09:54:35;;;;;;;;;;;;;;;;;;;;;
2022/01/20 09:57:11;;;;;;;11.15;2.75;;;;;;;3.24;77.26;102155.66;4990983;28;20562;-79
2022/01/20 09:59:54;;;;;;;9.13;2.45;;;;;;;3.47;78.26;102176.09;4995314;28;20129;-84
2022/01/20 10:02:29;;;;;;;10.25;3.17;;;;;;;3.61;77.01;102181.47;4991201;28;20042;-80
2022/01/20 10:05:04;;;;;;;11.20;2.95;;;;;;;3.60;77.85;102168.59;4989426;28;20043;-79
2022/01/20 10:07:54;;;;;;;8.80;3.00;;;;;;;3.74;75.83;102170.53;4988538;28;20058;-80
2022/01/20 10:13:33;;;;;;;12.98;3.08;;;;;;;3.62;76.80;102193.50;4983996;28;20042;-80
2022/01/20 10:16:21;;;;;;;12.87;3.47;;;;;;;3.84;76.72;102205.41;4988262;28;20072;-80
2022/01/20 10:19:30;;;;;;;17.80;3.83;;;;;;;3.86;75.47;102208.75;4987084;28;20142;-80
2022/01/20 10:25:19;;;;;;;13.00;3.08;;;;;;;3.33;76.82;102166.41;4932295;29;20044;-80
2022/01/20 10:28:05;;;;;;;10.50;3.33;;;;;;;3.43;78.34;102210.78;4931884;29;20092;-81
2022/01/20 10:31:21;;;;;;;8.07;3.70;;;;;;;3.34;78.05;102212.06;4988542;28;20046;-80
2022/01/20 10:34:15;;;;;;;13.30;3.25;;;;;;;3.31;78.09;102203.59;4995929;28;20153;-82
2022/01/20 10:37:13;;;;;;;12.50;3.38;;;;;;;3.21;78.11;102184.25;5008363;28;20077;-82
2022/01/20 10:42:36;;;;;;;11.52;3.33;;;;;;;3.15;76.28;102185.38;5172561;23;20484;-81
2022/01/20 10:45:05;;;;;;;14.18;4.18;;;;;;;3.20;76.10;102203.28;4965622;28;20047;-79
2022/01/20 10:47:36;;;;;;;20.08;4.05;;;;;;;3.20;76.44;102208.44;4964580;29;20427;-79
2022/01/20 10:50:11;;;;;;;10.88;3.65;;;;;;;3.22;76.95;102214.41;4960275;29;20188;-81
2022/01/20 10:52:40;;;;;;;16.70;3.50;;;;;;;3.21;77.89;102233.41;4944377;29;20082;-79
2022/01/20 10:55:19;;;;;;;16.02;3.70;;;;;;;3.18;78.90;102218.03;4942328;29;20054;-79
2022/01/20 10:57:46;;;;;;;15.98;4.10;;;;;;;3.29;77.66;102214.03;4943272;29;20087;-81
2022/01/20 11:00:19;;;;;;;13.90;3.70;;;;;;;3.41;76.91;102212.63;4945308;29;20551;-79
2022/01/20 11:02:50;;;;;;;16.25;3.30;;;;;;;3.41;78.86;102222.97;4943244;29;20067;-80
2022/01/20 11:05:20;;;;;;;12.25;3.85;;;;;;;3.39;79.37;102217.03;4947003;29;20052;-79
2022/01/20 11:07:47;;;;;;;21.45;3.80;;;;;;;3.46;79.94;102221.00;4947197;29;20111;-79
2022/01/20 11:10:16;;;;;;;20.20;4.65;;;;;;;3.39;81.26;102208.41;4947879;29;20047;-80
2022/01/20 11:12:43;;;;;;;10.50;3.75;;;;;;;3.33;80.82;102219.88;4946186;29;20079;-80
2022/01/20 11:15:12;;;;;;;11.63;4.03;;;;;;;3.30;81.10;102225.22;4944256;29;20135;-80
2022/01/20 11:17:41;;;;;;;18.30;3.63;;;;;;;3.29;80.33;102239.91;4944617;29;20051;-79
2022/01/20 11:20:10;;;;;;;15.20;4.47;;;;;;;3.21;80.26;102230.81;4940577;29;20073;-80
2022/01/20 11:22:38;;;;;;;15.48;4.20;;;;;;;3.09;81.80;102231.38;4944502;29;20051;-80
2022/01/20 11:25:09;;;;;;;11.90;3.58;;;;;;;2.85;84.00;102208.25;4942471;29;20130;-79
2022/01/20 11:27:40;;;;;;;15.57;4.43;;;;;;;2.78;85.46;102217.22;4942731;29;20044;-80
2022/01/20 11:30:15;;;;;;;15.38;4.20;;;;;;;2.90;86.02;102221.84;4942734;29;20236;-80
2022/01/20 11:32:45;;;;;;;15.88;4.15;;;;;;;2.93;86.91;102216.53;4943108;29;20134;-80
2022/01/20 11:35:13;;;;;;;15.57;4.45;;;;;;;2.98;87.72;102208.56;4944111;29;20052;-80
2022/01/20 11:37:42;;;;;;;21.30;4.55;;;;;;;2.91;86.91;102212.34;4942235;29;20079;-79
2022/01/20 11:40:16;;;;;;;12.98;3.80;;;;;;;2.90;85.51;102210.66;4940739;29;20082;-80
2022/01/20 11:42:43;;;;;;;14.02;4.50;;;;;;;2.91;85.74;102208.00;4941716;29;20051;-79
2022/01/20 11:45:24;;;;;;;16.83;4.20;;;;;;;2.99;85.76;102218.00;4941206;29;20144;-81
2022/01/20 11:47:52;;;;;;;16.23;4.10;;;;;;;3.08;85.96;102207.25;4942749;29;20134;-77
2022/01/20 11:50:20;;;;;;;20.67;4.82;;;;;;;2.89;86.30;102198.63;4936423;29;20551;-79
2022/01/20 11:52:53;;;;;;;22.58;4.82;;;;;;;2.68;86.46;102205.59;4942913;29;20314;-79
2022/01/20 11:55:20;;;;;;;16.55;4.15;;;;;;;2.64;86.81;102209.22;4944027;29;20114;-83
2022/01/20 11:57:47;;;;;;;14.15;3.58;;;;;;;2.57;86.59;102208.66;4946020;29;20062;-79
2022/01/20 12:00:22;;;;;;;19.15;4.47;;;;;;;2.60;85.66;102215.44;4947193;29;20051;-79
2022/01/20 12:02:49;;;;;;;14.15;3.88;;;;;;;2.62;84.35;102208.44;4936633;29;20056;-79
2022/01/20 12:05:20;;;;;;;17.05;5.20;;;;;;;2.76;84.19;102213.88;4927967;29;20052;-79
2022/01/20 12:07:47;;;;;;;14.13;4.05;;;;;;;2.86;83.69;102196.19;4921822;29;20482;-81
2022/01/20 12:10:16;;;;;;;10.77;4.47;;;;;;;3.00;83.50;102189.50;4923355;29;20140;-79
2022/01/20 12:12:44;;;;;;;10.93;3.97;;;;;;;3.11;83.17;102199.34;4923447;29;20076;-81
2022/01/20 12:15:14;;;;;;;11.13;3.53;;;;;;;3.33;83.22;102194.00;4924869;29;20048;-78
2022/01/20 12:17:48;;;;;;;13.27;4.53;;;;;;;3.47;82.66;102195.97;4937163;29;20130;-80
2022/01/20 12:20:14;;;;;;;12.20;3.83;;;;;;;3.62;81.55;102190.91;4942033;29;20075;-79
2022/01/20 12:22:44;;;;;;;14.93;4.47;;;;;;;3.81;80.50;102190.00;4942334;29;20104;-80
2022/01/20 12:25:17;;;;;;;17.05;4.55;;;;;;;3.83;79.96;102183.84;4942657;29;20087;-80
2022/01/20 12:27:45;;;;;;;14.88;4.18;;;;;;;3.84;79.81;102174.31;4939599;29;20076;-80
2022/01/20 12:30:23;;;;;;;16.55;4.50;;;;;;;3.98;78.98;102184.84;4946939;29;20091;-81
2022/01/20 12:32:58;;;;;;;18.48;4.40;;;;;;;4.16;79.08;102175.34;4948048;29;20577;-81
2022/01/20 12:35:25;;;;;;;14.05;4.15;;;;;;;4.19;79.00;102191.56;4942168;29;20058;-81
2022/01/20 12:37:53;;;;;;;16.25;4.45;;;;;;;4.23;78.14;102176.72;4942551;29;20355;-80
2022/01/20 12:40:22;;;;;;;18.55;4.15;;;;;;;4.34;78.28;102167.44;4942293;29;20134;-81
2022/01/20 12:42:49;;;;;;;18.38;4.43;;;;;;;4.61;77.00;102172.13;4942305;29;20059;-81
2022/01/20 12:48:18;;;;;;;18.02;4.95;;;;;;;4.74;76.09;102170.56;4940368;29;20051;-84
2022/01/20 12:50:56;;;;;;;11.73;3.50;;;;;;;4.68;74.45;102163.13;4939812;29;20097;-81
2022/01/20 12:53:43;;;;;;;19.63;4.75;;;;;;;4.56;73.94;102156.81;4946717;29;20046;-82
2022/01/20 12:56:11;;;;;;;13.55;3.85;;;;;;;4.40;74.17;102157.69;4946672;29;20649;-82
2022/01/20 12:58:46;;;;;;;14.63;4.13;;;;;;;4.39;74.37;102166.38;4947469;29;20072;-82
2022/01/20 13:01:13;;;;;;;15.27;4.38;;;;;;;4.30;74.58;102158.16;4946035;29;20079;-81
2022/01/20 13:03:42;;;;;;;9.93;3.53;;;;;;;4.31;74.99;102162.41;4949791;29;20094;-82
2022/01/20 13:06:21;;;;;;;18.90;4.38;;;;;;;4.43;76.18;102147.16;4948296;29;20083;-82
2022/01/20 13:11:57;;;;;;;19.30;4.20;;;;;;;4.36;72.29;102154.41;4946552;29;20075;-82
2022/01/20 13:14:36;;;;;;;20.38;4.35;;;;;;;4.50;72.44;102161.47;4946712;29;20088;-81
2022/01/20 13:17:22;;;;;;;17.98;4.07;;;;;;;4.55;71.80;102162.09;4939941;29;20043;-83
2022/01/20 13:20:40;;;;;;;12.27;3.75;;;;;;;4.56;72.41;102135.25;4943325;29;20055;-81
2022/01/20 13:26:18;;;;;;;13.07;3.88;;;;;;;4.48;70.39;102139.97;4943803;29;20050;-81
2022/01/20 13:28:44;;;;;;;12.75;4.18;;;;;;;4.45;71.10;102119.41;4943761;29;20126;-80
2022/01/20 13:31:42;;;;;;;20.73;4.13;;;;;;;4.54;71.68;102139.66;4940393;29;20051;-80
2022/01/20 13:34:13;;;;;;;14.18;3.65;;;;;;;4.39;70.74;102120.56;4942473;29;20138;-80
2022/01/20 13:40:37;;;;;;;12.23;3.47;;;;;;;4.23;70.97;102102.41;4926855;29;20056;-81
2022/01/20 13:46:04;;;;;;;19.42;4.70;;;;;;;4.16;70.90;102150.25;4947571;29;20550;-80
2022/01/20 13:48:44;;;;;;;16.80;4.03;;;;;;;4.03;72.19;102156.97;4945803;29;20424;-82
2022/01/20 13:51:26;;;;;;;17.25;3.90;;;;;;;3.96;73.35;102127.94;4946531;29;20059;-82
2022/01/20 13:57:41;;;;;;;;;;;;;;;;;;;;;
2022/01/20 14:00:25;;;;;;;17.63;5.35;;;;;;;3.80;75.40;102157.25;4895075;29;20131;-82
2022/01/20 14:02:57;;;;;;;16.40;4.35;;;;;;;3.65;75.33;102139.00;4949424;29;20056;-84
2022/01/20 14:05:40;;;;;;;11.93;4.22;;;;;;;3.66;76.00;102140.66;4950616;29;20060;-84
2022/01/20 14:08:39;;;;;;;11.75;4.32;;;;;;;3.69;77.42;102169.91;4950874;29;20066;-84
2022/01/20 14:11:18;;;;;;;17.40;4.60;;;;;;;3.64;76.45;102157.19;4948051;29;20076;-83
2022/01/20 15:12:31;;;;;;;11.18;4.32;;;;;;;2.96;77.06;102206.06;4977255;28;20063;-84
2022/01/20 15:14:58;;;;;;;13.48;3.92;;;;;;;2.92;78.06;102214.84;4969840;28;20051;-84
2022/01/20 15:17:26;;;;;;;12.55;4.22;;;;;;;2.81;78.39;102214.50;4972016;28;20134;-84
2022/01/20 15:19:55;;;;;;;13.80;3.30;;;;;;;2.72;78.33;102212.31;4969320;28;20110;-83
2022/01/20 15:22:24;;;;;;;16.33;3.60;;;;;;;2.64;78.92;102194.56;4954384;29;20059;-83
2022/01/20 15:27:19;;;;;;;12.45;3.47;;;;;;;2.81;78.85;102221.44;4982967;28;20050;-80
2022/01/20 15:29:47;;;;;;;13.07;3.22;;;;;;;2.80;78.36;102215.41;4980549;28;20564;-83
2022/01/20 15:32:14;;;;;;;15.52;3.53;;;;;;;2.77;78.34;102215.53;4981946;28;20210;-83
2022/01/20 15:34:41;;;;;;;13.07;4.07;;;;;;;2.79;79.18;102208.56;4982205;28;20106;-83
2022/01/20 15:37:07;;;;;;;11.30;3.78;;;;;;;2.74;78.86;102207.09;4963505;28;20134;-82
2022/01/20 15:39:34;;;;;;;17.15;3.95;;;;;;;2.66;80.00;102212.59;4964513;28;20059;-84
2022/01/20 15:42:01;;;;;;;16.02;3.80;;;;;;;2.58;80.22;102212.06;4963480;28;20106;-83